sensor_id;sensor_type;location;lat;lon;timestamp;P1;durP1;ratioP1;P2;durP2;ratioP2
18449;SDS011;9354;50.194;7.690;2022-11-15T00:00:10;10.30;;;5.10;;
18449;SDS011;9354;50.194;7.690;2022-11-15T00:02:37;8.63;;;5.00;;
18449;SDS011;9354;50.194;7.690;2022-11-15T00:05:05;12.90;;;6.00;;
18449;SDS011;9354;50.194;7.690;2022-11-15T00:07:34;9.90;;;6.13;;
18449;SDS011;9354;50.194;7.690;2022-11-15T00:10:02;12.87;;;6.90;;
18449;SDS011;9354;50.194;7.690;2022-11-15T00:12:30;9.87;;;5.57;;
18449;SDS011;9354;50.194;7.690;2022-11-15T00:14:57;7.50;;;4.83;;
18449;SDS011;9354;50.194;7.690;2022-11-15T00:17:25;10.63;;;6.40;;
18449;SDS011;9354;50.194;7.690;2022-11-15T00:19:52;11.63;;;6.27;;
18449;SDS011;9354;50.194;7.690;2022-11-15T00:22:20;12.43;;;6.40;;
18449;SDS011;9354;50.194;7.690;2022-11-15T00:24:48;16.37;;;7.20;;
18449;SDS011;9354;50.194;7.690;2022-11-15T00:27:16;13.13;;;7.77;;
18449;SDS011;9354;50.194;7.690;2022-11-15T00:29:43;13.03;;;7.00;;
18449;SDS011;9354;50.194;7.690;2022-11-15T00:32:11;14.00;;;8.13;;
18449;SDS011;9354;50.194;7.690;2022-11-15T00:34:38;17.73;;;8.80;;
18449;SDS011;9354;50.194;7.690;2022-11-15T00:37:05;12.50;;;8.40;;
18449;SDS011;9354;50.194;7.690;2022-11-15T00:39:33;17.63;;;9.40;;
18449;SDS011;9354;50.194;7.690;2022-11-15T00:42:02;14.13;;;7.70;;
18449;SDS011;9354;50.194;7.690;2022-11-15T00:44:29;12.53;;;6.73;;
18449;SDS011;9354;50.194;7.690;2022-11-15T00:46:57;12.97;;;7.10;;
18449;SDS011;9354;50.194;7.690;2022-11-15T00:49:24;14.23;;;7.73;;
18449;SDS011;9354;50.194;7.690;2022-11-15T00:51:51;14.27;;;7.33;;
18449;SDS011;9354;50.194;7.690;2022-11-15T00:54:19;15.97;;;7.93;;
18449;SDS011;9354;50.194;7.690;2022-11-15T00:56:46;14.23;;;8.00;;
18449;SDS011;9354;50.194;7.690;2022-11-15T00:59:15;12.10;;;7.43;;
18449;SDS011;9354;50.194;7.690;2022-11-15T01:01:42;15.37;;;7.97;;
18449;SDS011;9354;50.194;7.690;2022-11-15T01:04:09;12.90;;;7.17;;
18449;SDS011;9354;50.194;7.690;2022-11-15T01:06:37;16.13;;;8.43;;
18449;SDS011;9354;50.194;7.690;2022-11-15T01:09:04;14.67;;;7.60;;
18449;SDS011;9354;50.194;7.690;2022-11-15T01:11:32;21.37;;;8.53;;
18449;SDS011;9354;50.194;7.690;2022-11-15T01:13:59;15.50;;;7.97;;
18449;SDS011;9354;50.194;7.690;2022-11-15T01:16:28;17.80;;;8.93;;
18449;SDS011;9354;50.194;7.690;2022-11-15T01:18:55;16.37;;;9.07;;
18449;SDS011;9354;50.194;7.690;2022-11-15T01:21:22;18.27;;;9.50;;
18449;SDS011;9354;50.194;7.690;2022-11-15T01:23:52;17.93;;;9.27;;
18449;SDS011;9354;50.194;7.690;2022-11-15T01:26:20;18.27;;;9.13;;
18449;SDS011;9354;50.194;7.690;2022-11-15T01:28:47;19.80;;;9.87;;
18449;SDS011;9354;50.194;7.690;2022-11-15T01:31:15;19.53;;;9.17;;
18449;SDS011;9354;50.194;7.690;2022-11-15T01:33:45;18.37;;;9.43;;
18449;SDS011;9354;50.194;7.690;2022-11-15T01:36:15;14.67;;;8.93;;
18449;SDS011;9354;50.194;7.690;2022-11-15T01:38:44;18.40;;;9.43;;
18449;SDS011;9354;50.194;7.690;2022-11-15T01:41:19;17.27;;;9.00;;
18449;SDS011;9354;50.194;7.690;2022-11-15T01:43:48;17.67;;;9.50;;
18449;SDS011;9354;50.194;7.690;2022-11-15T01:46:22;18.27;;;10.20;;
18449;SDS011;9354;50.194;7.690;2022-11-15T01:48:55;21.03;;;10.73;;
18449;SDS011;9354;50.194;7.690;2022-11-15T01:51:26;22.10;;;10.93;;
18449;SDS011;9354;50.194;7.690;2022-11-15T01:53:58;24.33;;;11.07;;
18449;SDS011;9354;50.194;7.690;2022-11-15T01:56:30;16.17;;;10.33;;
18449;SDS011;9354;50.194;7.690;2022-11-15T01:58:59;15.97;;;9.70;;
18449;SDS011;9354;50.194;7.690;2022-11-15T02:01:30;19.43;;;10.70;;
18449;SDS011;9354;50.194;7.690;2022-11-15T02:04:02;19.60;;;9.83;;
18449;SDS011;9354;50.194;7.690;2022-11-15T02:06:33;19.43;;;10.23;;
18449;SDS011;9354;50.194;7.690;2022-11-15T02:09:02;17.70;;;10.10;;
18449;SDS011;9354;50.194;7.690;2022-11-15T02:11:29;18.27;;;9.40;;
18449;SDS011;9354;50.194;7.690;2022-11-15T02:13:57;18.70;;;9.80;;
18449;SDS011;9354;50.194;7.690;2022-11-15T02:16:27;17.60;;;9.37;;
18449;SDS011;9354;50.194;7.690;2022-11-15T02:19:05;20.77;;;9.53;;
18449;SDS011;9354;50.194;7.690;2022-11-15T02:21:45;16.67;;;9.37;;
18449;SDS011;9354;50.194;7.690;2022-11-15T02:30:28;15.97;;;8.10;;
18449;SDS011;9354;50.194;7.690;2022-11-15T02:33:06;12.93;;;7.87;;
18449;SDS011;9354;50.194;7.690;2022-11-15T02:35:47;19.63;;;8.23;;
18449;SDS011;9354;50.194;7.690;2022-11-15T02:38:25;14.27;;;7.80;;
18449;SDS011;9354;50.194;7.690;2022-11-15T02:41:01;14.27;;;6.93;;
18449;SDS011;9354;50.194;7.690;2022-11-15T02:43:35;11.77;;;7.33;;
18449;SDS011;9354;50.194;7.690;2022-11-15T02:46:26;10.57;;;6.33;;
18449;SDS011;9354;50.194;7.690;2022-11-15T02:49:19;11.20;;;6.30;;
18449;SDS011;9354;50.194;7.690;2022-11-15T02:51:46;11.00;;;6.80;;
18449;SDS011;9354;50.194;7.690;2022-11-15T02:54:18;12.67;;;6.03;;
18449;SDS011;9354;50.194;7.690;2022-11-15T02:56:48;8.47;;;5.80;;
18449;SDS011;9354;50.194;7.690;2022-11-15T03:02:30;14.53;;;6.50;;
18449;SDS011;9354;50.194;7.690;2022-11-15T03:05:09;11.57;;;6.50;;
18449;SDS011;9354;50.194;7.690;2022-11-15T03:07:47;12.67;;;6.17;;
18449;SDS011;9354;50.194;7.690;2022-11-15T03:10:22;9.67;;;6.30;;
18449;SDS011;9354;50.194;7.690;2022-11-15T03:12:57;10.80;;;6.60;;
18449;SDS011;9354;50.194;7.690;2022-11-15T03:15:36;11.53;;;6.13;;
18449;SDS011;9354;50.194;7.690;2022-11-15T03:18:10;10.00;;;6.00;;
18449;SDS011;9354;50.194;7.690;2022-11-15T03:20:45;11.07;;;5.67;;
18449;SDS011;9354;50.194;7.690;2022-11-15T03:23:14;9.10;;;5.30;;
18449;SDS011;9354;50.194;7.690;2022-11-15T03:25:44;9.67;;;5.47;;
18449;SDS011;9354;50.194;7.690;2022-11-15T03:28:16;10.90;;;5.33;;
18449;SDS011;9354;50.194;7.690;2022-11-15T03:30:46;8.17;;;5.30;;
18449;SDS011;9354;50.194;7.690;2022-11-15T03:33:17;14.90;;;5.97;;
18449;SDS011;9354;50.194;7.690;2022-11-15T03:35:46;7.70;;;5.27;;
18449;SDS011;9354;50.194;7.690;2022-11-15T03:38:15;10.07;;;5.47;;
18449;SDS011;9354;50.194;7.690;2022-11-15T03:40:49;10.93;;;4.60;;
18449;SDS011;9354;50.194;7.690;2022-11-15T03:43:22;11.13;;;5.33;;
18449;SDS011;9354;50.194;7.690;2022-11-15T03:45:58;10.23;;;4.97;;
18449;SDS011;9354;50.194;7.690;2022-11-15T03:48:30;9.77;;;5.47;;
18449;SDS011;9354;50.194;7.690;2022-11-15T03:51:02;10.77;;;5.47;;
18449;SDS011;9354;50.194;7.690;2022-11-15T03:53:30;11.60;;;5.37;;
18449;SDS011;9354;50.194;7.690;2022-11-15T03:55:58;9.53;;;5.13;;
18449;SDS011;9354;50.194;7.690;2022-11-15T03:58:25;7.83;;;4.90;;
18449;SDS011;9354;50.194;7.690;2022-11-15T04:00:53;9.87;;;5.07;;
18449;SDS011;9354;50.194;7.690;2022-11-15T04:03:20;8.93;;;5.13;;
18449;SDS011;9354;50.194;7.690;2022-11-15T04:05:49;9.60;;;5.20;;
18449;SDS011;9354;50.194;7.690;2022-11-15T04:08:16;8.83;;;5.00;;
18449;SDS011;9354;50.194;7.690;2022-11-15T04:10:44;8.37;;;4.63;;
18449;SDS011;9354;50.194;7.690;2022-11-15T04:13:11;8.27;;;4.83;;
18449;SDS011;9354;50.194;7.690;2022-11-15T04:15:38;8.73;;;4.90;;
18449;SDS011;9354;50.194;7.690;2022-11-15T04:18:06;8.53;;;4.93;;
18449;SDS011;9354;50.194;7.690;2022-11-15T04:20:33;8.43;;;4.80;;
18449;SDS011;9354;50.194;7.690;2022-11-15T04:23:20;7.63;;;4.67;;
18449;SDS011;9354;50.194;7.690;2022-11-15T04:26:07;9.00;;;5.17;;
18449;SDS011;9354;50.194;7.690;2022-11-15T04:28:37;8.07;;;4.50;;
18449;SDS011;9354;50.194;7.690;2022-11-15T04:31:24;6.13;;;3.70;;
18449;SDS011;9354;50.194;7.690;2022-11-15T04:33:52;7.67;;;4.10;;
18449;SDS011;9354;50.194;7.690;2022-11-15T04:36:20;6.17;;;3.80;;
18449;SDS011;9354;50.194;7.690;2022-11-15T04:39:07;9.87;;;4.00;;
18449;SDS011;9354;50.194;7.690;2022-11-15T04:41:35;7.13;;;3.97;;
18449;SDS011;9354;50.194;7.690;2022-11-15T04:44:02;7.10;;;4.00;;
18449;SDS011;9354;50.194;7.690;2022-11-15T04:46:29;6.27;;;3.80;;
18449;SDS011;9354;50.194;7.690;2022-11-15T04:48:57;7.07;;;4.30;;
18449;SDS011;9354;50.194;7.690;2022-11-15T04:51:24;7.17;;;4.20;;
18449;SDS011;9354;50.194;7.690;2022-11-15T04:53:52;10.13;;;3.70;;
18449;SDS011;9354;50.194;7.690;2022-11-15T04:56:21;6.67;;;3.77;;
18449;SDS011;9354;50.194;7.690;2022-11-15T04:58:48;6.97;;;4.07;;
18449;SDS011;9354;50.194;7.690;2022-11-15T05:01:16;5.40;;;3.50;;
18449;SDS011;9354;50.194;7.690;2022-11-15T05:03:44;5.40;;;3.50;;
18449;SDS011;9354;50.194;7.690;2022-11-15T05:06:29;4.73;;;3.10;;
18449;SDS011;9354;50.194;7.690;2022-11-15T05:08:56;5.63;;;3.37;;
18449;SDS011;9354;50.194;7.690;2022-11-15T05:11:25;6.70;;;3.47;;
18449;SDS011;9354;50.194;7.690;2022-11-15T05:13:53;4.90;;;3.03;;
18449;SDS011;9354;50.194;7.690;2022-11-15T05:16:21;7.00;;;3.73;;
18449;SDS011;9354;50.194;7.690;2022-11-15T05:18:50;5.53;;;3.20;;
18449;SDS011;9354;50.194;7.690;2022-11-15T05:21:18;6.90;;;3.77;;
18449;SDS011;9354;50.194;7.690;2022-11-15T05:23:45;7.10;;;4.00;;
18449;SDS011;9354;50.194;7.690;2022-11-15T05:26:13;5.87;;;3.63;;
18449;SDS011;9354;50.194;7.690;2022-11-15T05:28:44;6.20;;;3.57;;
18449;SDS011;9354;50.194;7.690;2022-11-15T05:31:12;5.53;;;3.73;;
18449;SDS011;9354;50.194;7.690;2022-11-15T05:33:41;5.60;;;3.40;;
18449;SDS011;9354;50.194;7.690;2022-11-15T05:36:11;8.53;;;3.60;;
18449;SDS011;9354;50.194;7.690;2022-11-15T05:38:43;6.97;;;3.90;;
18449;SDS011;9354;50.194;7.690;2022-11-15T05:41:11;6.03;;;3.67;;
18449;SDS011;9354;50.194;7.690;2022-11-15T05:43:39;6.70;;;3.33;;
18449;SDS011;9354;50.194;7.690;2022-11-15T05:46:09;7.27;;;3.77;;
18449;SDS011;9354;50.194;7.690;2022-11-15T05:48:37;7.03;;;3.87;;
18449;SDS011;9354;50.194;7.690;2022-11-15T05:51:09;6.83;;;3.50;;
18449;SDS011;9354;50.194;7.690;2022-11-15T05:53:39;8.23;;;4.10;;
18449;SDS011;9354;50.194;7.690;2022-11-15T05:56:06;7.53;;;4.17;;
18449;SDS011;9354;50.194;7.690;2022-11-15T05:58:36;6.17;;;3.93;;
18449;SDS011;9354;50.194;7.690;2022-11-15T06:01:04;8.43;;;4.10;;
18449;SDS011;9354;50.194;7.690;2022-11-15T06:03:33;7.10;;;3.97;;
18449;SDS011;9354;50.194;7.690;2022-11-15T06:06:00;7.10;;;4.50;;
18449;SDS011;9354;50.194;7.690;2022-11-15T06:08:28;10.37;;;4.30;;
18449;SDS011;9354;50.194;7.690;2022-11-15T06:10:55;7.50;;;4.70;;
18449;SDS011;9354;50.194;7.690;2022-11-15T06:13:22;13.03;;;4.50;;
18449;SDS011;9354;50.194;7.690;2022-11-15T06:15:50;9.83;;;5.00;;
18449;SDS011;9354;50.194;7.690;2022-11-15T06:18:17;12.07;;;5.47;;
18449;SDS011;9354;50.194;7.690;2022-11-15T06:20:46;8.80;;;5.40;;
18449;SDS011;9354;50.194;7.690;2022-11-15T06:23:13;9.63;;;5.30;;
18449;SDS011;9354;50.194;7.690;2022-11-15T06:25:41;10.67;;;6.30;;
18449;SDS011;9354;50.194;7.690;2022-11-15T06:28:08;14.30;;;6.03;;
18449;SDS011;9354;50.194;7.690;2022-11-15T06:30:35;9.57;;;5.80;;
18449;SDS011;9354;50.194;7.690;2022-11-15T06:33:03;11.90;;;6.40;;
18449;SDS011;9354;50.194;7.690;2022-11-15T06:35:32;15.93;;;6.63;;
18449;SDS011;9354;50.194;7.690;2022-11-15T06:38:05;12.80;;;6.30;;
18449;SDS011;9354;50.194;7.690;2022-11-15T06:40:34;11.67;;;6.23;;
18449;SDS011;9354;50.194;7.690;2022-11-15T06:43:03;10.47;;;6.27;;
18449;SDS011;9354;50.194;7.690;2022-11-15T06:45:31;12.20;;;5.67;;
18449;SDS011;9354;50.194;7.690;2022-11-15T06:47:59;11.50;;;5.47;;
18449;SDS011;9354;50.194;7.690;2022-11-15T06:50:26;10.80;;;6.17;;
18449;SDS011;9354;50.194;7.690;2022-11-15T06:52:54;9.57;;;5.80;;
18449;SDS011;9354;50.194;7.690;2022-11-15T06:55:22;11.37;;;6.00;;
18449;SDS011;9354;50.194;7.690;2022-11-15T06:57:50;9.50;;;5.47;;
18449;SDS011;9354;50.194;7.690;2022-11-15T07:00:19;10.37;;;5.77;;
18449;SDS011;9354;50.194;7.690;2022-11-15T07:02:47;12.00;;;6.27;;
18449;SDS011;9354;50.194;7.690;2022-11-15T07:05:15;10.87;;;5.97;;
18449;SDS011;9354;50.194;7.690;2022-11-15T07:07:43;12.30;;;6.37;;
18449;SDS011;9354;50.194;7.690;2022-11-15T07:10:18;9.47;;;6.10;;
18449;SDS011;9354;50.194;7.690;2022-11-15T07:12:47;11.57;;;5.90;;
18449;SDS011;9354;50.194;7.690;2022-11-15T07:15:15;9.13;;;5.80;;
18449;SDS011;9354;50.194;7.690;2022-11-15T07:17:43;9.53;;;5.53;;
18449;SDS011;9354;50.194;7.690;2022-11-15T07:20:11;8.03;;;4.90;;
18449;SDS011;9354;50.194;7.690;2022-11-15T07:22:39;12.03;;;5.77;;
18449;SDS011;9354;50.194;7.690;2022-11-15T07:25:07;10.80;;;5.37;;
18449;SDS011;9354;50.194;7.690;2022-11-15T07:27:35;8.47;;;5.00;;
18449;SDS011;9354;50.194;7.690;2022-11-15T07:30:05;9.97;;;5.30;;
18449;SDS011;9354;50.194;7.690;2022-11-15T07:32:33;7.43;;;4.80;;
18449;SDS011;9354;50.194;7.690;2022-11-15T07:35:01;7.13;;;4.47;;
18449;SDS011;9354;50.194;7.690;2022-11-15T07:37:28;10.63;;;5.30;;
18449;SDS011;9354;50.194;7.690;2022-11-15T07:39:56;9.83;;;4.97;;
18449;SDS011;9354;50.194;7.690;2022-11-15T07:42:23;14.30;;;5.07;;
18449;SDS011;9354;50.194;7.690;2022-11-15T07:45:09;7.27;;;4.70;;
18449;SDS011;9354;50.194;7.690;2022-11-15T07:47:37;8.53;;;5.37;;
18449;SDS011;9354;50.194;7.690;2022-11-15T07:50:04;11.17;;;4.97;;
18449;SDS011;9354;50.194;7.690;2022-11-15T07:52:32;10.47;;;5.37;;
18449;SDS011;9354;50.194;7.690;2022-11-15T07:54:59;7.83;;;4.77;;
18449;SDS011;9354;50.194;7.690;2022-11-15T07:57:27;8.27;;;5.13;;
18449;SDS011;9354;50.194;7.690;2022-11-15T07:59:54;9.33;;;5.27;;
18449;SDS011;9354;50.194;7.690;2022-11-15T08:02:23;7.20;;;4.73;;
18449;SDS011;9354;50.194;7.690;2022-11-15T08:04:50;9.27;;;5.43;;
18449;SDS011;9354;50.194;7.690;2022-11-15T08:07:18;9.57;;;5.87;;
18449;SDS011;9354;50.194;7.690;2022-11-15T08:09:45;7.60;;;5.07;;
18449;SDS011;9354;50.194;7.690;2022-11-15T08:12:13;11.33;;;4.93;;
18449;SDS011;9354;50.194;7.690;2022-11-15T08:14:41;11.83;;;5.70;;
18449;SDS011;9354;50.194;7.690;2022-11-15T08:17:08;9.10;;;5.13;;
18449;SDS011;9354;50.194;7.690;2022-11-15T08:19:37;9.93;;;4.97;;
18449;SDS011;9354;50.194;7.690;2022-11-15T08:22:04;9.00;;;5.50;;
18449;SDS011;9354;50.194;7.690;2022-11-15T08:24:32;9.00;;;5.13;;
18449;SDS011;9354;50.194;7.690;2022-11-15T08:26:59;9.60;;;4.90;;
18449;SDS011;9354;50.194;7.690;2022-11-15T08:29:27;8.57;;;5.50;;
18449;SDS011;9354;50.194;7.690;2022-11-15T08:31:54;10.40;;;5.33;;
18449;SDS011;9354;50.194;7.690;2022-11-15T08:34:22;7.93;;;5.37;;
18449;SDS011;9354;50.194;7.690;2022-11-15T08:36:51;9.53;;;5.80;;
18449;SDS011;9354;50.194;7.690;2022-11-15T08:39:18;8.67;;;5.77;;
18449;SDS011;9354;50.194;7.690;2022-11-15T08:41:45;14.43;;;6.07;;
18449;SDS011;9354;50.194;7.690;2022-11-15T08:44:13;13.90;;;6.87;;
18449;SDS011;9354;50.194;7.690;2022-11-15T08:46:40;12.33;;;6.53;;
18449;SDS011;9354;50.194;7.690;2022-11-15T08:49:08;11.57;;;7.20;;
18449;SDS011;9354;50.194;7.690;2022-11-15T08:51:35;10.97;;;6.70;;
18449;SDS011;9354;50.194;7.690;2022-11-15T08:54:04;14.07;;;7.20;;
18449;SDS011;9354;50.194;7.690;2022-11-15T08:56:31;12.20;;;7.27;;
18449;SDS011;9354;50.194;7.690;2022-11-15T08:58:59;12.93;;;7.00;;
18449;SDS011;9354;50.194;7.690;2022-11-15T09:01:26;9.97;;;6.33;;
18449;SDS011;9354;50.194;7.690;2022-11-15T09:03:53;11.13;;;6.43;;
18449;SDS011;9354;50.194;7.690;2022-11-15T09:06:21;10.87;;;5.80;;
18449;SDS011;9354;50.194;7.690;2022-11-15T09:08:48;9.07;;;5.33;;
18449;SDS011;9354;50.194;7.690;2022-11-15T09:11:17;7.17;;;5.07;;
18449;SDS011;9354;50.194;7.690;2022-11-15T09:13:46;9.60;;;5.23;;
18449;SDS011;9354;50.194;7.690;2022-11-15T09:16:14;9.60;;;4.37;;
18449;SDS011;9354;50.194;7.690;2022-11-15T09:18:41;6.67;;;4.30;;
18449;SDS011;9354;50.194;7.690;2022-11-15T09:21:09;8.33;;;5.10;;
18449;SDS011;9354;50.194;7.690;2022-11-15T09:23:37;10.43;;;4.73;;
18449;SDS011;9354;50.194;7.690;2022-11-15T09:26:05;7.13;;;4.50;;
18449;SDS011;9354;50.194;7.690;2022-11-15T09:28:34;8.00;;;4.77;;
18449;SDS011;9354;50.194;7.690;2022-11-15T09:31:04;11.20;;;4.23;;
18449;SDS011;9354;50.194;7.690;2022-11-15T09:33:32;7.77;;;3.70;;
18449;SDS011;9354;50.194;7.690;2022-11-15T09:36:00;6.30;;;3.67;;
18449;SDS011;9354;50.194;7.690;2022-11-15T09:38:28;5.87;;;3.77;;
18449;SDS011;9354;50.194;7.690;2022-11-15T09:40:58;5.03;;;3.33;;
18449;SDS011;9354;50.194;7.690;2022-11-15T09:43:47;7.43;;;3.73;;
18449;SDS011;9354;50.194;7.690;2022-11-15T09:46:25;6.00;;;3.10;;
18449;SDS011;9354;50.194;7.690;2022-11-15T09:49:01;4.67;;;3.13;;
18449;SDS011;9354;50.194;7.690;2022-11-15T09:51:31;6.60;;;3.37;;
18449;SDS011;9354;50.194;7.690;2022-11-15T09:54:03;8.43;;;3.60;;
18449;SDS011;9354;50.194;7.690;2022-11-15T09:56:37;8.13;;;3.70;;
18449;SDS011;9354;50.194;7.690;2022-11-15T09:59:31;7.00;;;3.37;;
18449;SDS011;9354;50.194;7.690;2022-11-15T10:02:17;7.20;;;4.33;;
18449;SDS011;9354;50.194;7.690;2022-11-15T10:04:57;7.63;;;3.23;;
18449;SDS011;9354;50.194;7.690;2022-11-15T10:07:27;6.47;;;2.80;;
18449;SDS011;9354;50.194;7.690;2022-11-15T10:10:00;5.30;;;3.00;;
18449;SDS011;9354;50.194;7.690;2022-11-15T10:12:35;5.57;;;3.47;;
18449;SDS011;9354;50.194;7.690;2022-11-15T10:15:06;5.67;;;3.27;;
18449;SDS011;9354;50.194;7.690;2022-11-15T10:17:43;4.83;;;2.50;;
18449;SDS011;9354;50.194;7.690;2022-11-15T10:20:25;5.27;;;2.70;;
18449;SDS011;9354;50.194;7.690;2022-11-15T10:22:55;3.87;;;2.30;;
18449;SDS011;9354;50.194;7.690;2022-11-15T10:25:25;6.23;;;2.40;;
18449;SDS011;9354;50.194;7.690;2022-11-15T10:27:55;4.17;;;2.50;;
18449;SDS011;9354;50.194;7.690;2022-11-15T10:30:29;3.90;;;2.40;;
18449;SDS011;9354;50.194;7.690;2022-11-15T10:33:13;4.43;;;2.27;;
18449;SDS011;9354;50.194;7.690;2022-11-15T10:36:17;5.23;;;2.70;;
18449;SDS011;9354;50.194;7.690;2022-11-15T10:38:53;4.20;;;2.60;;
18449;SDS011;9354;50.194;7.690;2022-11-15T10:41:29;6.50;;;2.50;;
18449;SDS011;9354;50.194;7.690;2022-11-15T10:49:53;3.33;;;2.43;;
18449;SDS011;9354;50.194;7.690;2022-11-15T10:52:25;3.77;;;2.83;;
18449;SDS011;9354;50.194;7.690;2022-11-15T10:54:55;4.23;;;2.63;;
18449;SDS011;9354;50.194;7.690;2022-11-15T10:57:26;4.87;;;2.87;;
18449;SDS011;9354;50.194;7.690;2022-11-15T10:59:57;4.17;;;2.20;;
18449;SDS011;9354;50.194;7.690;2022-11-15T11:02:30;4.07;;;2.87;;
18449;SDS011;9354;50.194;7.690;2022-11-15T11:04:59;4.03;;;2.60;;
18449;SDS011;9354;50.194;7.690;2022-11-15T11:07:28;5.60;;;2.43;;
18449;SDS011;9354;50.194;7.690;2022-11-15T11:09:58;3.67;;;2.20;;
18449;SDS011;9354;50.194;7.690;2022-11-15T11:12:27;5.57;;;2.00;;
18449;SDS011;9354;50.194;7.690;2022-11-15T11:14:57;4.27;;;2.87;;
18449;SDS011;9354;50.194;7.690;2022-11-15T11:17:31;4.90;;;2.33;;
18449;SDS011;9354;50.194;7.690;2022-11-15T11:20:05;4.50;;;2.33;;
18449;SDS011;9354;50.194;7.690;2022-11-15T11:22:39;4.23;;;2.30;;
18449;SDS011;9354;50.194;7.690;2022-11-15T11:25:19;5.27;;;2.50;;
18449;SDS011;9354;50.194;7.690;2022-11-15T11:27:57;4.30;;;2.40;;
18449;SDS011;9354;50.194;7.690;2022-11-15T11:30:42;3.30;;;2.20;;
18449;SDS011;9354;50.194;7.690;2022-11-15T11:33:17;4.87;;;2.40;;
18449;SDS011;9354;50.194;7.690;2022-11-15T11:35:50;3.80;;;2.33;;
18449;SDS011;9354;50.194;7.690;2022-11-15T11:41:21;7.60;;;2.30;;
18449;SDS011;9354;50.194;7.690;2022-11-15T11:44:04;5.47;;;2.83;;
18449;SDS011;9354;50.194;7.690;2022-11-15T11:46:46;4.20;;;2.40;;
18449;SDS011;9354;50.194;7.690;2022-11-15T11:49:20;4.90;;;2.80;;
18449;SDS011;9354;50.194;7.690;2022-11-15T11:51:54;4.97;;;3.27;;
18449;SDS011;9354;50.194;7.690;2022-11-15T11:54:29;5.57;;;3.03;;
18449;SDS011;9354;50.194;7.690;2022-11-15T11:57:02;4.63;;;3.00;;
18449;SDS011;9354;50.194;7.690;2022-11-15T11:59:36;4.80;;;2.83;;
18449;SDS011;9354;50.194;7.690;2022-11-15T12:02:11;7.23;;;2.70;;
18449;SDS011;9354;50.194;7.690;2022-11-15T12:04:43;4.37;;;3.50;;
18449;SDS011;9354;50.194;7.690;2022-11-15T12:07:15;6.87;;;3.30;;
18449;SDS011;9354;50.194;7.690;2022-11-15T12:09:49;6.37;;;3.03;;
18449;SDS011;9354;50.194;7.690;2022-11-15T12:12:24;9.33;;;2.67;;
18449;SDS011;9354;50.194;7.690;2022-11-15T12:14:57;6.37;;;3.00;;
18449;SDS011;9354;50.194;7.690;2022-11-15T12:17:30;6.97;;;2.83;;
18449;SDS011;9354;50.194;7.690;2022-11-15T12:20:02;6.43;;;2.90;;
18449;SDS011;9354;50.194;7.690;2022-11-15T12:22:35;5.50;;;2.63;;
18449;SDS011;9354;50.194;7.690;2022-11-15T12:25:07;5.07;;;2.50;;
18449;SDS011;9354;50.194;7.690;2022-11-15T12:27:42;3.83;;;2.73;;
18449;SDS011;9354;50.194;7.690;2022-11-15T12:30:16;3.70;;;2.20;;
18449;SDS011;9354;50.194;7.690;2022-11-15T12:32:49;4.57;;;2.23;;
18449;SDS011;9354;50.194;7.690;2022-11-15T12:35:23;3.67;;;2.27;;
18449;SDS011;9354;50.194;7.690;2022-11-15T12:37:54;4.93;;;2.10;;
18449;SDS011;9354;50.194;7.690;2022-11-15T12:40:25;4.37;;;2.37;;
18449;SDS011;9354;50.194;7.690;2022-11-15T12:42:59;6.17;;;2.43;;
18449;SDS011;9354;50.194;7.690;2022-11-15T12:45:34;5.73;;;2.10;;
18449;SDS011;9354;50.194;7.690;2022-11-15T12:51:14;6.33;;;2.10;;
18449;SDS011;9354;50.194;7.690;2022-11-15T12:53:42;3.03;;;1.90;;
18449;SDS011;9354;50.194;7.690;2022-11-15T12:56:17;4.70;;;2.43;;
18449;SDS011;9354;50.194;7.690;2022-11-15T12:58:50;3.73;;;2.10;;
18449;SDS011;9354;50.194;7.690;2022-11-15T13:04:25;3.73;;;2.40;;
18449;SDS011;9354;50.194;7.690;2022-11-15T13:06:57;8.60;;;2.57;;
18449;SDS011;9354;50.194;7.690;2022-11-15T13:18:31;4.33;;;2.50;;
18449;SDS011;9354;50.194;7.690;2022-11-15T13:21:01;5.30;;;2.57;;
18449;SDS011;9354;50.194;7.690;2022-11-15T13:23:54;4.50;;;2.40;;
18449;SDS011;9354;50.194;7.690;2022-11-15T13:26:22;3.57;;;2.20;;
18449;SDS011;9354;50.194;7.690;2022-11-15T13:28:50;4.03;;;2.43;;
18449;SDS011;9354;50.194;7.690;2022-11-15T13:31:30;3.93;;;2.40;;
18449;SDS011;9354;50.194;7.690;2022-11-15T13:34:12;4.30;;;2.20;;
18449;SDS011;9354;50.194;7.690;2022-11-15T13:36:46;4.67;;;1.87;;
18449;SDS011;9354;50.194;7.690;2022-11-15T13:39:25;4.40;;;1.83;;
18449;SDS011;9354;50.194;7.690;2022-11-15T13:41:54;7.27;;;2.10;;
18449;SDS011;9354;50.194;7.690;2022-11-15T13:44:23;5.43;;;2.00;;
18449;SDS011;9354;50.194;7.690;2022-11-15T13:47:01;6.27;;;2.20;;
18449;SDS011;9354;50.194;7.690;2022-11-15T13:49:30;5.57;;;2.10;;
18449;SDS011;9354;50.194;7.690;2022-11-15T13:51:59;4.23;;;1.90;;
18449;SDS011;9354;50.194;7.690;2022-11-15T13:54:29;3.13;;;2.17;;
18449;SDS011;9354;50.194;7.690;2022-11-15T13:57:01;3.17;;;1.83;;
18449;SDS011;9354;50.194;7.690;2022-11-15T13:59:31;6.60;;;2.50;;
18449;SDS011;9354;50.194;7.690;2022-11-15T14:02:02;4.40;;;2.20;;
18449;SDS011;9354;50.194;7.690;2022-11-15T14:04:39;3.43;;;2.07;;
18449;SDS011;9354;50.194;7.690;2022-11-15T14:07:16;7.13;;;2.23;;
18449;SDS011;9354;50.194;7.690;2022-11-15T14:09:46;4.27;;;2.10;;
18449;SDS011;9354;50.194;7.690;2022-11-15T14:12:25;4.30;;;2.23;;
18449;SDS011;9354;50.194;7.690;2022-11-15T14:14:55;4.03;;;2.50;;
18449;SDS011;9354;50.194;7.690;2022-11-15T14:17:33;4.03;;;2.57;;
18449;SDS011;9354;50.194;7.690;2022-11-15T14:20:18;5.73;;;2.50;;
18449;SDS011;9354;50.194;7.690;2022-11-15T14:22:52;3.80;;;2.37;;
18449;SDS011;9354;50.194;7.690;2022-11-15T14:25:21;4.93;;;2.40;;
18449;SDS011;9354;50.194;7.690;2022-11-15T14:30:38;3.90;;;2.47;;
18449;SDS011;9354;50.194;7.690;2022-11-15T14:33:16;4.90;;;2.47;;
18449;SDS011;9354;50.194;7.690;2022-11-15T14:35:46;6.60;;;2.50;;
18449;SDS011;9354;50.194;7.690;2022-11-15T14:38:14;5.13;;;2.63;;
18449;SDS011;9354;50.194;7.690;2022-11-15T14:40:43;3.33;;;2.13;;
18449;SDS011;9354;50.194;7.690;2022-11-15T14:43:11;6.20;;;2.70;;
18449;SDS011;9354;50.194;7.690;2022-11-15T14:45:39;4.30;;;2.33;;
18449;SDS011;9354;50.194;7.690;2022-11-15T14:48:06;6.77;;;2.13;;
18449;SDS011;9354;50.194;7.690;2022-11-15T14:50:34;5.07;;;2.23;;
18449;SDS011;9354;50.194;7.690;2022-11-15T14:53:02;4.43;;;2.60;;
18449;SDS011;9354;50.194;7.690;2022-11-15T14:55:30;7.07;;;2.57;;
18449;SDS011;9354;50.194;7.690;2022-11-15T14:58:02;4.77;;;2.50;;
18449;SDS011;9354;50.194;7.690;2022-11-15T15:00:30;6.70;;;2.37;;
18449;SDS011;9354;50.194;7.690;2022-11-15T15:02:58;5.60;;;2.40;;
18449;SDS011;9354;50.194;7.690;2022-11-15T15:05:29;5.43;;;2.60;;
18449;SDS011;9354;50.194;7.690;2022-11-15T15:08:02;4.97;;;2.50;;
18449;SDS011;9354;50.194;7.690;2022-11-15T15:10:32;6.50;;;2.80;;
18449;SDS011;9354;50.194;7.690;2022-11-15T15:13:03;3.77;;;2.20;;
18449;SDS011;9354;50.194;7.690;2022-11-15T15:15:32;5.47;;;2.50;;
18449;SDS011;9354;50.194;7.690;2022-11-15T15:18:01;3.60;;;2.50;;
18449;SDS011;9354;50.194;7.690;2022-11-15T15:20:30;4.17;;;2.57;;
18449;SDS011;9354;50.194;7.690;2022-11-15T15:22:58;4.97;;;2.37;;
18449;SDS011;9354;50.194;7.690;2022-11-15T15:25:27;5.47;;;2.63;;
18449;SDS011;9354;50.194;7.690;2022-11-15T15:27:57;6.10;;;2.70;;
18449;SDS011;9354;50.194;7.690;2022-11-15T15:30:27;6.00;;;2.97;;
18449;SDS011;9354;50.194;7.690;2022-11-15T15:32:55;4.80;;;3.03;;
18449;SDS011;9354;50.194;7.690;2022-11-15T15:35:23;6.53;;;3.03;;
18449;SDS011;9354;50.194;7.690;2022-11-15T15:37:55;9.37;;;3.20;;
18449;SDS011;9354;50.194;7.690;2022-11-15T15:40:23;4.93;;;3.27;;
18449;SDS011;9354;50.194;7.690;2022-11-15T15:42:52;6.00;;;2.73;;
18449;SDS011;9354;50.194;7.690;2022-11-15T15:45:19;6.70;;;2.90;;
18449;SDS011;9354;50.194;7.690;2022-11-15T15:47:48;5.13;;;3.10;;
18449;SDS011;9354;50.194;7.690;2022-11-15T15:50:19;7.67;;;4.03;;
18449;SDS011;9354;50.194;7.690;2022-11-15T15:52:48;7.07;;;3.77;;